Time;durP1;ratioP1;P1;durP2;ratioP2;P2;SDS_P1;SDS_P2;PMS_P1;PMS_P2;Temp;Humidity;BMP_temperature;BMP_pressure;BME280_temperature;BME280_humidity;BME280_pressure;Samples;Min_cycle;Max_cycle;Signal;HPM_P1;HPM_P2
2023/05/25 00:01:20;;;;;;;13.00;4.32;;;;;;;12.96;62.40;96565.38;5089858;28;20055;-74
2023/05/25 00:03:48;;;;;;;11.32;3.80;;;;;;;13.02;63.10;96564.06;5086807;28;20071;-74
2023/05/25 00:06:14;;;;;;;8.20;3.38;;;;;;;13.02;63.13;96558.59;5077886;28;20048;-75
2023/05/25 00:08:41;;;;;;;10.35;4.05;;;;;;;13.07;63.96;96564.69;5074146;28;20052;-76
2023/05/25 00:11:09;;;;;;;6.65;3.33;;;;;;;13.12;63.66;96565.63;5079905;28;20044;-75
2023/05/25 00:13:35;;;;;;;9.40;3.20;;;;;;;13.11;62.48;96562.09;5079768;28;20419;-74
2023/05/25 00:16:01;;;;;;;9.05;3.75;;;;;;;13.08;63.60;96557.28;5071530;28;20446;-75
2023/05/25 00:18:28;;;;;;;8.90;3.50;;;;;;;13.06;62.84;96559.53;5071785;28;20063;-74
2023/05/25 00:20:54;;;;;;;6.50;3.42;;;;;;;13.07;62.56;96563.88;5076243;28;20036;-75
2023/05/25 00:23:21;;;;;;;10.90;4.10;;;;;;;13.07;63.61;96561.16;5092055;28;20048;-76
2023/05/25 00:25:47;;;;;;;7.55;3.55;;;;;;;13.06;63.34;96554.06;5092551;28;20048;-75
2023/05/25 00:28:15;;;;;;;8.07;3.50;;;;;;;12.98;63.77;96563.09;5091257;28;20476;-75
2023/05/25 00:30:42;;;;;;;14.57;4.78;;;;;;;12.90;63.09;96572.16;5091573;28;20075;-74
2023/05/25 00:33:09;;;;;;;7.15;3.60;;;;;;;12.98;64.67;96563.91;5091111;28;20044;-74
2023/05/25 00:35:35;;;;;;;12.00;4.72;;;;;;;13.01;64.59;96566.00;5086936;28;20127;-75
2023/05/25 00:38:02;;;;;;;6.63;3.53;;;;;;;13.01;64.07;96579.66;5071513;28;20488;-75
2023/05/25 00:40:29;;;;;;;8.75;3.33;;;;;;;13.02;65.15;96575.00;5071391;28;20056;-74
2023/05/25 00:42:56;;;;;;;8.35;4.07;;;;;;;13.02;65.06;96575.00;5091501;28;20044;-74
2023/05/25 00:45:23;;;;;;;8.18;3.50;;;;;;;13.01;65.00;96573.41;5089888;28;20059;-74
2023/05/25 00:47:51;;;;;;;8.70;4.03;;;;;;;13.00;65.33;96572.59;5082946;28;20411;-74
2023/05/25 00:50:30;;;;;;;10.45;3.65;;;;;;;12.99;63.86;96575.63;5072773;28;20040;-74
2023/05/25 00:52:57;;;;;;;7.45;3.55;;;;;;;12.98;64.68;96579.50;5071164;28;20496;-74
2023/05/25 00:55:25;;;;;;;10.68;4.50;;;;;;;12.96;64.71;96574.38;5078446;28;20052;-74
2023/05/25 00:57:53;;;;;;;10.73;3.70;;;;;;;12.98;64.71;96571.31;5086003;28;20048;-74
2023/05/25 01:00:20;;;;;;;11.77;3.92;;;;;;;13.00;66.56;96577.25;5080291;28;20416;-74
2023/05/25 01:02:51;;;;;;;11.85;4.07;;;;;;;12.93;66.00;96577.75;5071904;28;20041;-74
2023/05/25 01:05:20;;;;;;;13.52;4.53;;;;;;;12.80;65.32;96570.59;5072779;28;20044;-74
2023/05/25 01:07:47;;;;;;;9.15;3.92;;;;;;;12.89;65.38;96576.00;5085641;28;20043;-74
2023/05/25 01:10:15;;;;;;;10.32;3.97;;;;;;;12.92;66.06;96575.34;5082368;28;20052;-73
2023/05/25 01:12:44;;;;;;;6.88;3.83;;;;;;;12.91;65.27;96579.22;5077997;28;20072;-74
2023/05/25 01:15:11;;;;;;;12.68;4.43;;;;;;;12.89;64.86;96571.34;5078476;28;20051;-74
2023/05/25 01:17:38;;;;;;;12.10;4.45;;;;;;;12.95;65.55;96563.78;5078754;28;20044;-74
2023/05/25 01:20:07;;;;;;;11.68;4.75;;;;;;;12.99;66.88;96560.03;5082500;28;20574;-74
2023/05/25 01:22:39;;;;;;;11.43;4.50;;;;;;;12.92;67.33;96554.28;5070152;28;20442;-76
2023/05/25 01:25:13;;;;;;;12.77;5.10;;;;;;;12.84;66.99;96562.50;5072892;28;20039;-74
2023/05/25 01:27:44;;;;;;;8.80;4.60;;;;;;;12.86;67.25;96552.88;5072360;28;20068;-74
2023/05/25 01:30:15;;;;;;;14.88;5.85;;;;;;;12.82;68.33;96554.66;5074873;28;20048;-73
2023/05/25 01:32:43;;;;;;;14.85;6.20;;;;;;;12.87;69.29;96551.75;5074756;28;20058;-74
2023/05/25 01:35:11;;;;;;;11.85;6.45;;;;;;;12.68;69.50;96554.03;5082425;28;20062;-74
2023/05/25 01:37:46;;;;;;;15.88;6.28;;;;;;;12.77;70.04;96552.91;5085911;28;20577;-74
2023/05/25 01:40:13;;;;;;;12.60;6.40;;;;;;;12.85;70.54;96555.94;5069785;28;20062;-74
2023/05/25 01:42:39;;;;;;;13.18;7.38;;;;;;;12.82;71.29;96551.13;5078563;28;20063;-75
2023/05/25 01:45:08;;;;;;;16.95;7.95;;;;;;;12.67;72.26;96542.31;5089382;28;20040;-74
2023/05/25 01:47:43;;;;;;;11.50;6.80;;;;;;;12.79;73.10;96560.78;5078414;28;20044;-73
2023/05/25 01:50:18;;;;;;;19.00;7.97;;;;;;;12.77;73.82;96558.34;5078561;28;20051;-74
2023/05/25 01:52:52;;;;;;;16.63;8.15;;;;;;;12.86;74.06;96560.28;5082194;28;20101;-74
2023/05/25 01:55:21;;;;;;;18.10;9.05;;;;;;;12.84;74.64;96567.97;5089280;28;20494;-74
2023/05/25 01:57:56;;;;;;;19.88;9.75;;;;;;;12.91;75.07;96568.28;5090128;28;20098;-73
2023/05/25 02:00:25;;;;;;;19.17;10.15;;;;;;;12.72;77.45;96564.00;5087106;28;20040;-73
2023/05/25 02:02:53;;;;;;;16.50;9.82;;;;;;;12.76;78.41;96564.16;5081591;28;20043;-74
2023/05/25 02:05:20;;;;;;;18.00;10.05;;;;;;;12.74;79.95;96561.75;5076366;28;20042;-74
2023/05/25 02:07:48;;;;;;;18.10;11.20;;;;;;;12.73;81.63;96562.06;5072794;28;20102;-74
2023/05/25 02:10:14;;;;;;;17.25;11.20;;;;;;;12.84;81.06;96566.03;5077468;28;20047;-74
2023/05/25 02:12:41;;;;;;;16.02;10.20;;;;;;;12.94;81.37;96562.16;5070029;28;20055;-74
2023/05/25 02:15:08;;;;;;;19.55;11.63;;;;;;;12.71;83.94;96553.41;5081794;28;20415;-74
2023/05/25 02:17:35;;;;;;;17.98;10.77;;;;;;;12.90;82.99;96555.75;5082072;28;20499;-73
2023/05/25 02:20:02;;;;;;;16.67;10.68;;;;;;;12.94;83.27;96556.69;5077096;28;20411;-75
2023/05/25 02:22:30;;;;;;;18.75;10.13;;;;;;;12.83;84.28;96555.44;5079005;28;20070;-74
2023/05/25 02:24:58;;;;;;;17.40;11.00;;;;;;;12.87;84.24;96550.94;5076045;28;20052;-74
2023/05/25 02:27:24;;;;;;;18.65;10.45;;;;;;;12.98;84.31;96542.03;5079074;28;20040;-74
2023/05/25 02:29:52;;;;;;;18.42;11.48;;;;;;;12.93;84.52;96546.88;5086539;28;20040;-74
2023/05/25 02:32:18;;;;;;;17.77;11.55;;;;;;;12.88;85.19;96547.06;5082223;28;20048;-73
2023/05/25 02:34:45;;;;;;;17.98;10.10;;;;;;;12.93;84.76;96549.63;5085401;28;20059;-74
2023/05/25 02:37:12;;;;;;;18.83;10.68;;;;;;;12.92;84.60;96542.56;5085868;28;20053;-74
2023/05/25 02:39:39;;;;;;;18.88;10.57;;;;;;;12.85;84.63;96547.75;5090254;28;20048;-74
2023/05/25 02:42:07;;;;;;;14.50;9.52;;;;;;;12.95;84.47;96536.44;5095575;28;20052;-74
2023/05/25 02:44:33;;;;;;;16.10;9.52;;;;;;;12.94;84.33;96541.09;5084315;28;20132;-74
2023/05/25 02:47:00;;;;;;;21.38;10.68;;;;;;;12.98;83.87;96541.25;5080472;28;20055;-74
2023/05/25 02:49:26;;;;;;;13.80;9.60;;;;;;;12.96;83.93;96548.97;5085408;28;20040;-74
2023/05/25 02:51:53;;;;;;;15.73;9.55;;;;;;;13.05;83.60;96547.00;5086099;28;20550;-74
2023/05/25 02:54:19;;;;;;;17.75;9.48;;;;;;;13.12;83.76;96562.91;5096633;28;20048;-74
2023/05/25 02:56:46;;;;;;;16.30;9.90;;;;;;;13.11;83.68;96556.63;5100038;28;20052;-74
2023/05/25 02:59:13;;;;;;;16.25;9.88;;;;;;;13.20;83.29;96556.56;5092371;28;20055;-74
2023/05/25 03:01:40;;;;;;;18.08;9.77;;;;;;;13.23;83.23;96564.16;5092584;28;20051;-74
2023/05/25 03:04:07;;;;;;;18.23;10.68;;;;;;;13.15;83.31;96563.00;5096222;28;20046;-74
2023/05/25 03:06:35;;;;;;;15.95;10.30;;;;;;;12.93;83.35;96566.81;5102881;28;20048;-74
2023/05/25 03:09:03;;;;;;;14.23;9.77;;;;;;;13.06;83.00;96565.00;5083455;28;20075;-76
2023/05/25 03:11:30;;;;;;;15.60;9.68;;;;;;;13.14;82.74;96561.41;5076274;28;20565;-74
2023/05/25 03:13:56;;;;;;;15.80;9.45;;;;;;;13.00;83.70;96560.88;5077045;28;20048;-73
2023/05/25 03:16:24;;;;;;;15.10;9.43;;;;;;;13.05;83.14;96568.88;5081254;28;20051;-75
2023/05/25 03:18:51;;;;;;;18.73;10.00;;;;;;;12.73;83.73;96573.00;5082162;28;20048;-74
2023/05/25 03:21:17;;;;;;;14.27;9.20;;;;;;;12.89;83.18;96565.06;5078325;28;20041;-74
2023/05/25 03:23:44;;;;;;;15.70;9.23;;;;;;;12.90;83.42;96572.16;5097475;28;20044;-74
2023/05/25 03:26:10;;;;;;;14.60;9.02;;;;;;;12.89;83.19;96565.06;5096106;28;20047;-74
2023/05/25 03:28:36;;;;;;;17.40;9.82;;;;;;;12.72;84.45;96566.72;5081132;28;20044;-74
2023/05/25 03:31:04;;;;;;;14.63;9.10;;;;;;;12.94;83.32;96562.16;5075395;28;20048;-74
2023/05/25 03:33:32;;;;;;;13.43;8.93;;;;;;;12.95;83.00;96558.31;5092267;28;20695;-74
2023/05/25 03:35:58;;;;;;;15.52;9.68;;;;;;;12.79;83.01;96567.06;5096468;28;20059;-73
2023/05/25 03:38:25;;;;;;;13.35;8.45;;;;;;;12.89;82.58;96559.59;5085106;28;20044;-75
2023/05/25 03:40:51;;;;;;;16.15;9.07;;;;;;;12.76;83.21;96561.44;5079208;28;20395;-74
2023/05/25 03:43:17;;;;;;;13.60;8.32;;;;;;;12.76;83.42;96561.44;5082062;28;20055;-73
2023/05/25 03:45:44;;;;;;;12.02;7.90;;;;;;;12.90;82.74;96561.22;5073241;28;20058;-73
2023/05/25 03:48:10;;;;;;;12.43;8.50;;;;;;;12.91;82.96;96562.81;5071622;28;20407;-74
2023/05/25 03:50:39;;;;;;;20.02;9.77;;;;;;;12.73;83.37;96559.34;5075115;28;20058;-74
2023/05/25 03:53:06;;;;;;;15.45;9.27;;;;;;;12.86;83.34;96554.81;5083560;28;20111;-74
2023/05/25 03:55:32;;;;;;;16.23;8.93;;;;;;;12.86;82.81;96563.00;5075423;28;20063;-74
2023/05/25 03:57:59;;;;;;;15.00;8.82;;;;;;;12.71;82.97;96559.66;5076894;28;20102;-74
2023/05/25 04:00:25;;;;;;;19.45;8.93;;;;;;;12.70;82.93;96566.28;5087421;28;20044;-74
2023/05/25 04:02:52;;;;;;;15.57;8.95;;;;;;;12.65;82.92;96562.91;5072223;28;20049;-74
2023/05/25 04:05:19;;;;;;;19.17;9.40;;;;;;;12.44;83.65;96560.06;5080736;28;20045;-73
2023/05/25 04:07:46;;;;;;;14.82;8.70;;;;;;;12.65;83.11;96562.91;5072396;28;20044;-74
2023/05/25 04:10:13;;;;;;;13.38;8.50;;;;;;;12.68;82.54;96565.78;5083867;28;20040;-73
2023/05/25 04:12:39;;;;;;;16.50;8.68;;;;;;;12.69;82.36;96567.41;5092176;28;20044;-74
2023/05/25 04:15:08;;;;;;;19.45;9.65;;;;;;;12.59;82.15;96565.03;5090892;28;20050;-74
2023/05/25 04:17:34;;;;;;;16.88;8.82;;;;;;;12.72;81.93;96569.47;5083585;28;20048;-74
2023/05/25 04:20:01;;;;;;;14.55;8.32;;;;;;;12.80;81.65;96568.66;5088861;28;20048;-74
2023/05/25 04:22:27;;;;;;;17.88;8.85;;;;;;;12.63;81.76;96568.69;5079907;28;20040;-74
2023/05/25 04:24:55;;;;;;;19.80;8.60;;;;;;;12.58;81.75;96576.25;5071806;28;20052;-74
2023/05/25 04:27:22;;;;;;;14.07;8.55;;;;;;;12.38;82.18;96572.31;5088739;28;20052;-74
2023/05/25 04:29:49;;;;;;;18.45;8.75;;;;;;;12.61;82.16;96568.22;5083202;28;20052;-73
2023/05/25 04:32:16;;;;;;;19.33;8.32;;;;;;;12.62;81.75;96571.75;5074589;28;20083;-74
2023/05/25 04:34:43;;;;;;;13.65;7.75;;;;;;;12.76;81.62;96570.41;5071607;28;20114;-74
2023/05/25 04:37:10;;;;;;;13.70;8.20;;;;;;;12.83;82.09;96578.09;5071754;28;20052;-74
2023/05/25 04:39:36;;;;;;;18.38;8.85;;;;;;;12.72;80.26;96572.19;5084419;28;20052;-75
2023/05/25 04:42:04;;;;;;;19.00;7.95;;;;;;;12.79;80.12;96579.91;5076367;28;20416;-75
2023/05/25 04:44:31;;;;;;;15.07;7.47;;;;;;;12.72;80.56;96580.41;5080581;28;20143;-74
2023/05/25 04:47:00;;;;;;;19.05;9.07;;;;;;;12.67;79.17;96585.22;5076816;28;20046;-73
2023/05/25 04:49:26;;;;;;;18.60;8.80;;;;;;;12.59;79.81;96586.06;5070654;28;20037;-74
2023/05/25 04:51:53;;;;;;;22.35;8.77;;;;;;;12.74;79.32;96586.34;5071144;28;20052;-73
2023/05/25 04:54:19;;;;;;;14.98;8.32;;;;;;;12.71;79.24;96587.00;5078494;28;20049;-74
2023/05/25 04:56:46;;;;;;;16.38;7.68;;;;;;;12.79;79.91;96588.91;5081377;28;20056;-74
2023/05/25 04:59:14;;;;;;;14.40;7.38;;;;;;;12.83;78.08;96588.25;5070748;28;20432;-74
2023/05/25 05:01:40;;;;;;;15.25;7.18;;;;;;;12.79;77.52;96594.38;5074337;28;20139;-73
2023/05/25 05:04:07;;;;;;;17.23;7.47;;;;;;;12.77;77.66;96593.09;5081121;28;20048;-75
2023/05/25 05:06:35;;;;;;;15.18;7.10;;;;;;;12.82;77.45;96592.91;5070812;28;20098;-74
2023/05/25 05:09:01;;;;;;;13.90;6.97;;;;;;;12.90;78.97;96583.88;5078347;28;20060;-74
2023/05/25 05:11:28;;;;;;;16.38;7.75;;;;;;;12.83;76.79;96601.91;5070676;28;20101;-73
2023/05/25 05:13:55;;;;;;;18.50;7.10;;;;;;;12.90;77.00;96604.97;5077060;28;20049;-73
2023/05/25 05:16:23;;;;;;;15.93;7.13;;;;;;;12.98;76.74;96601.38;5071461;28;20531;-73
2023/05/25 05:18:50;;;;;;;13.18;6.53;;;;;;;12.98;76.91;96601.38;5076807;28;20044;-74
2023/05/25 05:21:16;;;;;;;14.25;6.78;;;;;;;12.88;75.09;96604.47;5073564;28;20043;-74
2023/05/25 05:23:43;;;;;;;19.35;12.45;;;;;;;12.73;75.31;96598.38;5074816;28;20051;-73
2023/05/25 05:26:10;;;;;;;16.27;7.38;;;;;;;12.86;75.48;96606.72;5075995;28;20051;-75
2023/05/25 05:28:36;;;;;;;18.58;6.97;;;;;;;12.90;75.94;96611.22;5090676;28;20048;-76
2023/05/25 05:31:03;;;;;;;16.88;8.70;;;;;;;12.89;74.68;96609.59;5082559;28;20745;-76
2023/05/25 05:33:31;;;;;;;18.23;8.80;;;;;;;13.01;74.13;96617.13;5070395;28;20048;-75
2023/05/25 05:35:57;;;;;;;14.57;6.40;;;;;;;12.98;74.28;96618.56;5067427;28;20052;-74
2023/05/25 05:38:23;;;;;;;13.43;6.80;;;;;;;13.04;73.87;96613.72;5085585;28;20044;-76
2023/05/25 05:40:50;;;;;;;19.02;6.80;;;;;;;13.12;73.93;96612.91;5082492;28;20048;-77
2023/05/25 05:43:17;;;;;;;15.52;6.72;;;;;;;13.21;75.59;96621.91;5086096;28;20048;-77
2023/05/25 05:45:43;;;;;;;13.20;6.05;;;;;;;13.23;76.23;96616.91;5088366;28;20694;-75
2023/05/25 05:48:10;;;;;;;15.18;6.20;;;;;;;13.31;74.67;96618.81;5078684;28;20048;-75
2023/05/25 05:50:38;;;;;;;21.98;6.85;;;;;;;13.18;72.70;96621.72;5075006;28;20052;-75
2023/05/25 05:53:06;;;;;;;12.13;6.03;;;;;;;13.35;72.50;96626.34;5066556;28;20049;-74
2023/05/25 05:55:32;;;;;;;16.45;6.22;;;;;;;13.47;74.28;96630.00;5067039;28;20044;-75
2023/05/25 05:57:59;;;;;;;11.95;6.07;;;;;;;13.20;72.03;96625.72;5082371;28;20054;-76
2023/05/25 06:00:25;;;;;;;18.92;6.43;;;;;;;13.16;70.90;96624.81;5085822;28;20043;-75
2023/05/25 06:02:52;;;;;;;14.70;6.45;;;;;;;13.12;71.42;96634.78;5087568;28;20054;-75
2023/05/25 06:05:19;;;;;;;15.93;6.30;;;;;;;13.15;71.90;96636.84;5086556;28;20693;-76
2023/05/25 06:07:48;;;;;;;15.60;5.82;;;;;;;13.27;71.62;96637.00;5087749;28;20067;-76
2023/05/25 06:10:14;;;;;;;13.18;6.55;;;;;;;13.20;72.35;96639.41;5083966;28;20075;-75
2023/05/25 06:12:41;;;;;;;13.55;6.53;;;;;;;13.25;72.29;96643.91;5066910;28;20396;-77
2023/05/25 06:15:08;;;;;;;13.82;6.13;;;;;;;13.24;72.51;96648.59;5076457;28;20514;-74
2023/05/25 06:17:35;;;;;;;17.83;6.72;;;;;;;13.04;72.53;96661.00;5075252;28;20503;-75
2023/05/25 06:20:02;;;;;;;16.70;7.28;;;;;;;13.00;73.15;96643.66;5084192;28;20426;-75
2023/05/25 06:22:28;;;;;;;16.58;6.00;;;;;;;13.01;72.76;96652.66;5069936;28;20480;-74
2023/05/25 06:24:56;;;;;;;16.05;6.57;;;;;;;13.06;73.55;96652.50;5072314;28;20044;-74
2023/05/25 06:27:23;;;;;;;21.42;7.35;;;;;;;12.96;73.57;96652.84;5073480;28;20047;-75
2023/05/25 06:29:50;;;;;;;15.25;5.57;;;;;;;12.82;73.32;96646.75;5067463;28;20057;-76
2023/05/25 06:32:16;;;;;;;18.17;6.68;;;;;;;12.89;73.78;96653.31;5068374;28;20048;-73
2023/05/25 06:34:42;;;;;;;18.50;6.60;;;;;;;13.02;74.87;96657.00;5086030;28;20082;-74
2023/05/25 06:37:09;;;;;;;15.82;6.45;;;;;;;13.07;73.19;96659.56;5086215;28;20051;-74
2023/05/25 06:39:36;;;;;;;13.70;6.40;;;;;;;12.90;73.65;96660.41;5081568;28;20079;-74
2023/05/25 06:42:04;;;;;;;18.45;6.90;;;;;;;13.03;73.95;96664.88;5086185;28;20139;-73
2023/05/25 06:44:30;;;;;;;14.98;6.85;;;;;;;13.11;74.89;96660.53;5085716;28;20044;-74
2023/05/25 06:46:57;;;;;;;16.23;7.00;;;;;;;13.20;73.96;96668.69;5073290;28;20052;-74
2023/05/25 06:49:23;;;;;;;14.13;7.40;;;;;;;13.02;75.41;96668.75;5065903;28;20049;-74
2023/05/25 06:51:50;;;;;;;13.65;6.75;;;;;;;13.13;75.48;96669.19;5066831;28;20044;-74
2023/05/25 06:54:18;;;;;;;16.38;6.88;;;;;;;13.32;75.94;96677.84;5085717;28;20136;-74
2023/05/25 06:56:45;;;;;;;13.70;7.03;;;;;;;13.31;75.80;96670.78;5074566;28;20516;-73
2023/05/25 06:59:12;;;;;;;15.63;7.63;;;;;;;13.40;75.72;96678.13;5069160;28;20056;-73
2023/05/25 07:01:39;;;;;;;14.73;7.15;;;;;;;13.23;75.83;96684.47;5082395;28;20056;-73
2023/05/25 07:04:06;;;;;;;16.50;8.05;;;;;;;13.27;75.96;96674.50;5066001;28;20110;-75
2023/05/25 07:06:32;;;;;;;12.40;7.05;;;;;;;13.30;75.99;96677.34;5066207;28;20061;-75
2023/05/25 07:08:59;;;;;;;16.90;8.63;;;;;;;13.35;76.53;96686.53;5085449;28;20052;-75
2023/05/25 07:11:26;;;;;;;16.30;7.13;;;;;;;13.42;76.76;96681.38;5086014;28;20453;-75
2023/05/25 07:13:53;;;;;;;15.45;7.72;;;;;;;13.32;75.92;96683.31;5085795;28;20562;-73
2023/05/25 07:16:21;;;;;;;17.92;8.13;;;;;;;13.41;76.69;96680.53;5077568;28;20056;-74
2023/05/25 07:18:47;;;;;;;16.42;8.48;;;;;;;13.45;76.24;96675.22;5070079;28;20052;-75
2023/05/25 07:21:14;;;;;;;16.00;7.90;;;;;;;13.58;76.78;96668.72;5071691;28;20068;-75
2023/05/25 07:23:40;;;;;;;22.15;7.78;;;;;;;13.60;76.38;96677.41;5070001;28;20068;-73
2023/05/25 07:26:07;;;;;;;16.48;8.27;;;;;;;13.74;76.32;96674.44;5069505;28;20068;-76
2023/05/25 07:28:33;;;;;;;14.02;8.23;;;;;;;13.83;76.76;96670.53;5084711;28;20067;-73
2023/05/25 07:31:00;;;;;;;15.13;7.38;;;;;;;14.04;77.10;96672.47;5089855;28;20044;-74
2023/05/25 07:33:28;;;;;;;11.88;7.85;;;;;;;14.06;75.01;96678.44;5089325;28;20051;-74
2023/05/25 07:35:54;;;;;;;15.32;7.95;;;;;;;14.18;76.00;96680.44;5089842;28;20048;-75
2023/05/25 07:38:21;;;;;;;14.27;8.10;;;;;;;13.98;75.64;96676.53;5088776;28;20052;-74
2023/05/25 07:40:48;;;;;;;15.50;8.13;;;;;;;13.82;75.71;96679.06;5088740;28;20067;-75
2023/05/25 07:43:14;;;;;;;16.52;8.55;;;;;;;13.78;76.59;96684.41;5080330;28;20135;-75
2023/05/25 07:45:41;;;;;;;16.40;8.05;;;;;;;13.80;76.51;96684.06;5069457;28;20056;-73
2023/05/25 07:48:08;;;;;;;18.98;8.85;;;;;;;13.75;77.48;96687.78;5068841;28;20044;-73
2023/05/25 07:50:36;;;;;;;16.08;8.95;;;;;;;13.74;77.19;96688.94;5073191;28;20072;-74
2023/05/25 07:53:02;;;;;;;16.80;8.07;;;;;;;13.80;77.69;96684.88;5089089;28;20048;-74
2023/05/25 07:55:28;;;;;;;17.20;8.88;;;;;;;13.80;77.40;96687.59;5089349;28;20052;-75
2023/05/25 07:57:55;;;;;;;14.80;9.38;;;;;;;13.98;77.51;96687.50;5089382;28;20056;-75
2023/05/25 08:00:22;;;;;;;17.67;8.52;;;;;;;13.99;77.19;96700.03;5086900;28;20055;-75
2023/05/25 08:02:48;;;;;;;13.93;8.57;;;;;;;13.91;76.57;96695.44;5069396;28;20052;-75
2023/05/25 08:05:15;;;;;;;11.70;8.15;;;;;;;14.06;76.92;96700.34;5068563;28;20063;-74
2023/05/25 08:07:44;;;;;;;17.58;9.00;;;;;;;14.08;77.07;96706.28;5080775;28;20063;-74
2023/05/25 08:10:11;;;;;;;16.08;8.95;;;;;;;14.20;77.10;96700.91;5081699;28;20040;-75
2023/05/25 08:12:37;;;;;;;17.98;7.97;;;;;;;14.31;76.88;96718.53;5074802;28;20056;-74
2023/05/25 08:15:05;;;;;;;18.90;8.32;;;;;;;14.33;77.21;96716.25;5072410;28;20052;-74
2023/05/25 08:17:31;;;;;;;13.80;8.40;;;;;;;14.44;77.49;96724.88;5068858;28;20045;-75
2023/05/25 08:19:58;;;;;;;15.75;9.43;;;;;;;14.38;77.36;96719.94;5075590;28;20498;-73
2023/05/25 08:22:25;;;;;;;18.10;8.52;;;;;;;14.30;76.68;96722.41;5077584;28;20045;-73
2023/05/25 08:24:52;;;;;;;15.07;8.65;;;;;;;14.39;76.65;96710.59;5072012;28;20052;-73
2023/05/25 08:27:19;;;;;;;11.75;8.05;;;;;;;14.34;76.32;96712.38;5072263;28;20052;-73
2023/05/25 08:29:45;;;;;;;15.73;7.72;;;;;;;14.39;76.48;96708.66;5068124;28;20052;-75
2023/05/25 08:32:12;;;;;;;14.20;7.28;;;;;;;14.43;76.93;96706.84;5078750;28;20051;-73
2023/05/25 08:34:38;;;;;;;14.98;8.50;;;;;;;14.46;76.86;96711.66;5071540;28;20048;-73
2023/05/25 08:37:05;;;;;;;14.88;8.13;;;;;;;14.45;75.86;96712.78;5067887;28;20047;-73
2023/05/25 08:39:32;;;;;;;11.55;7.78;;;;;;;14.30;76.32;96724.34;5068606;28;20101;-75
2023/05/25 08:42:00;;;;;;;12.10;7.57;;;;;;;14.38;76.59;96722.69;5071185;28;20051;-77
2023/05/25 08:44:28;;;;;;;13.73;8.25;;;;;;;14.29;76.57;96731.75;5071644;28;20056;-77
2023/05/25 08:46:56;;;;;;;11.55;6.95;;;;;;;14.39;77.37;96729.75;5074565;28;20045;-78
2023/05/25 08:49:23;;;;;;;11.18;7.57;;;;;;;14.34;76.22;96726.06;5070891;28;20040;-76
2023/05/25 08:51:51;;;;;;;9.98;6.78;;;;;;;14.38;76.61;96725.44;5069175;28;20055;-75
2023/05/25 08:54:19;;;;;;;12.32;6.97;;;;;;;14.65;76.19;96726.84;5074555;28;20052;-75
2023/05/25 08:56:50;;;;;;;12.75;7.32;;;;;;;14.75;76.76;96726.44;5081448;28;20052;-73
2023/05/25 08:59:28;;;;;;;13.52;7.70;;;;;;;14.72;75.63;96730.69;5079356;28;20052;-75
2023/05/25 09:02:02;;;;;;;12.02;7.78;;;;;;;14.80;76.26;96729.78;5088054;28;20064;-74
2023/05/25 09:04:29;;;;;;;13.50;7.35;;;;;;;14.79;75.86;96728.19;5087361;28;20044;-73
2023/05/25 09:06:57;;;;;;;12.38;7.57;;;;;;;14.78;76.42;96734.00;5088567;28;20076;-73
2023/05/25 09:09:23;;;;;;;15.32;8.95;;;;;;;14.64;75.91;96739.75;5087749;28;20479;-73
2023/05/25 09:11:50;;;;;;;12.85;7.65;;;;;;;14.61;76.16;96733.00;5086786;28;20058;-74
2023/05/25 09:14:17;;;;;;;16.25;8.10;;;;;;;14.78;76.38;96740.28;5087336;28;20056;-74
2023/05/25 09:16:46;;;;;;;18.92;8.82;;;;;;;14.74;76.19;96733.88;5087191;28;20582;-75
2023/05/25 09:19:13;;;;;;;14.63;8.27;;;;;;;14.78;76.67;96734.81;5072178;28;20515;-73
2023/05/25 09:21:40;;;;;;;16.20;8.60;;;;;;;14.74;76.44;96735.81;5082560;28;20119;-72
2023/05/25 09:24:07;;;;;;;14.95;8.48;;;;;;;14.80;76.85;96739.94;5078482;28;20491;-72
2023/05/25 09:26:34;;;;;;;11.80;8.20;;;;;;;14.78;76.36;96745.78;5087419;28;20044;-75
2023/05/25 09:29:01;;;;;;;14.25;8.43;;;;;;;14.80;76.31;96748.19;5071968;28;20040;-74
2023/05/25 09:31:28;;;;;;;11.18;8.35;;;;;;;14.88;76.49;96741.81;5070269;28;20499;-73
2023/05/25 09:33:58;;;;;;;14.13;8.80;;;;;;;14.73;75.91;96756.16;5087800;28;20415;-74
2023/05/25 09:36:25;;;;;;;13.27;8.13;;;;;;;14.78;76.03;96759.50;5075332;28;20044;-77
2023/05/25 09:38:53;;;;;;;13.18;8.50;;;;;;;14.85;76.27;96748.78;5075538;28;20044;-75
2023/05/25 09:41:20;;;;;;;10.90;7.68;;;;;;;15.01;76.97;96751.69;5086221;28;20048;-75
2023/05/25 09:43:47;;;;;;;14.25;8.23;;;;;;;15.10;74.24;96746.94;5090945;28;20063;-75
2023/05/25 09:46:14;;;;;;;14.60;8.20;;;;;;;15.25;74.60;96756.47;5082641;28;20131;-75
2023/05/25 09:48:42;;;;;;;15.50;8.30;;;;;;;15.43;72.17;96745.31;5072743;28;20052;-76
2023/05/25 09:51:11;;;;;;;12.15;7.53;;;;;;;15.59;73.62;96759.97;5075183;28;20055;-75
2023/05/25 09:53:37;;;;;;;13.52;8.35;;;;;;;15.74;71.48;96756.59;5075165;28;20049;-75
2023/05/25 09:56:05;;;;;;;15.25;8.35;;;;;;;15.93;73.34;96758.81;5068580;28;20045;-76
2023/05/25 09:58:32;;;;;;;12.45;7.82;;;;;;;16.11;72.77;96748.38;5069366;28;20071;-75
2023/05/25 10:00:59;;;;;;;12.93;7.60;;;;;;;16.35;72.68;96748.38;5069496;28;20048;-76
2023/05/25 10:03:26;;;;;;;14.18;8.43;;;;;;;16.58;70.13;96747.88;5088161;28;20051;-75
2023/05/25 10:05:54;;;;;;;15.23;7.57;;;;;;;16.49;69.80;96747.19;5079031;28;20163;-75
2023/05/25 10:08:24;;;;;;;11.75;8.10;;;;;;;16.38;69.55;96750.41;5082478;28;20055;-76
2023/05/25 10:10:51;;;;;;;14.27;8.88;;;;;;;16.54;69.66;96749.69;5089523;28;20052;-75
2023/05/25 10:13:20;;;;;;;13.80;9.35;;;;;;;16.47;67.95;96752.25;5089474;28;20056;-75
2023/05/25 10:15:48;;;;;;;15.82;8.60;;;;;;;16.39;67.79;96754.78;5083786;28;20060;-77
2023/05/25 10:18:15;;;;;;;15.95;8.40;;;;;;;16.37;67.90;96757.06;5072744;28;20057;-75
2023/05/25 10:20:43;;;;;;;14.38;8.82;;;;;;;16.57;69.12;96751.78;5074225;28;20048;-76
2023/05/25 10:23:12;;;;;;;14.40;8.32;;;;;;;16.52;67.13;96752.00;5065349;28;20499;-76
2023/05/25 10:25:44;;;;;;;13.25;8.05;;;;;;;16.79;67.93;96751.28;5072517;28;20044;-76
2023/05/25 10:28:17;;;;;;;14.82;8.93;;;;;;;17.07;66.65;96753.22;5065381;28;20393;-76
2023/05/25 10:30:44;;;;;;;14.60;9.05;;;;;;;17.17;66.57;96747.22;5065662;28;20571;-75
2023/05/25 10:33:10;;;;;;;13.75;8.73;;;;;;;17.18;66.33;96757.09;5086074;28;20056;-77
2023/05/25 10:35:38;;;;;;;11.10;8.27;;;;;;;17.47;66.34;96748.44;5086395;28;20059;-76
2023/05/25 10:38:06;;;;;;;17.63;8.75;;;;;;;17.56;64.91;96745.53;5080340;28;20064;-77
2023/05/25 10:40:34;;;;;;;13.88;8.20;;;;;;;17.91;65.98;96740.19;5080549;28;20044;-75
2023/05/25 10:43:02;;;;;;;12.43;8.70;;;;;;;18.18;65.35;96752.25;5072308;28;20048;-76
2023/05/25 10:45:29;;;;;;;12.93;8.57;;;;;;;18.19;62.19;96753.03;5065887;28;20643;-74
2023/05/25 10:47:56;;;;;;;14.40;9.07;;;;;;;18.60;63.65;96753.59;5082481;28;20080;-75
2023/05/25 10:50:25;;;;;;;14.07;8.77;;;;;;;18.74;63.33;96748.38;5085944;28;20055;-75
2023/05/25 10:53:00;;;;;;;16.38;8.85;;;;;;;18.35;62.93;96747.50;5085884;28;20044;-74
2023/05/25 10:55:30;;;;;;;15.35;8.98;;;;;;;18.31;62.11;96752.91;5086517;28;20052;-75
2023/05/25 10:58:12;;;;;;;14.10;9.65;;;;;;;18.15;65.24;96752.16;5090163;28;20546;-77
2023/05/25 11:00:39;;;;;;;18.10;9.13;;;;;;;18.23;64.28;96753.94;5082955;28;20130;-76
2023/05/25 11:03:06;;;;;;;18.35;9.65;;;;;;;18.14;63.33;96754.09;5090240;28;20052;-75
2023/05/25 11:05:38;;;;;;;13.98;9.15;;;;;;;18.25;63.98;96751.59;5085860;28;20811;-75
2023/05/25 11:08:06;;;;;;;13.32;9.20;;;;;;;18.26;64.49;96750.44;5089573;28;20048;-75
2023/05/25 11:10:53;;;;;;;15.50;9.63;;;;;;;18.27;64.62;96741.03;5088384;28;20052;-75
2023/05/25 11:13:37;;;;;;;13.52;9.15;;;;;;;18.41;65.09;96746.84;5081783;28;20074;-75
2023/05/25 11:16:16;;;;;;;14.95;9.18;;;;;;;18.52;65.32;96739.63;5086296;28;20162;-76
2023/05/25 11:18:44;;;;;;;14.60;9.50;;;;;;;18.62;65.25;96741.00;5082930;28;20109;-77
2023/05/25 11:21:12;;;;;;;14.57;9.18;;;;;;;18.87;63.97;96741.59;5089779;28;20503;-76
2023/05/25 11:23:51;;;;;;;13.82;8.80;;;;;;;18.91;62.30;96734.19;5093221;28;20059;-76
2023/05/25 11:26:21;;;;;;;20.20;10.25;;;;;;;18.87;61.73;96738.81;5086789;28;20060;-76